Time;durP1;ratioP1;P1;durP2;ratioP2;P2;SDS_P1;SDS_P2;PMS_P1;PMS_P2;Temp;Humidity;BMP_temperature;BMP_pressure;BME280_temperature;BME280_humidity;BME280_pressure;Samples;Min_cycle;Max_cycle;Signal;HPM_P1;HPM_P2
2024/01/04 00:02:13;;;;;;;72.60;21.27;;;;;;;2.35;100.00;99467.38;5076104;28;20039;-80
2024/01/04 00:04:41;;;;;;;67.13;19.65;;;;;;;2.00;100.00;99451.25;5090590;28;20073;-79
2024/01/04 00:07:06;;;;;;;58.00;19.52;;;;;;;2.38;100.00;99451.19;5090242;28;20028;-80
2024/01/04 00:09:32;;;;;;;88.05;22.33;;;;;;;2.28;100.00;99439.31;5058727;28;20032;-79
2024/01/04 00:11:57;;;;;;;140.57;24.90;;;;;;;2.05;100.00;99418.34;5069400;28;20453;-78
2024/01/04 00:14:23;;;;;;;95.70;22.13;;;;;;;2.39;100.00;99479.16;5071920;28;20056;-78
2024/01/04 00:16:48;;;;;;;103.15;21.27;;;;;;;2.29;100.00;99468.09;5082995;28;20100;-78
2024/01/04 00:19:13;;;;;;;107.28;19.60;;;;;;;2.37;100.00;99470.63;5066119;28;20028;-78
2024/01/04 00:21:39;;;;;;;96.18;18.95;;;;;;;2.16;100.00;99452.09;5065173;28;20119;-79
2024/01/04 00:24:04;;;;;;;64.97;18.95;;;;;;;2.12;100.00;99469.22;5083580;28;20032;-78
2024/01/04 00:26:30;;;;;;;77.20;17.48;;;;;;;2.07;100.00;99464.50;5082940;28;20029;-79
2024/01/04 00:28:55;;;;;;;120.68;19.35;;;;;;;2.11;100.00;99459.72;5065126;28;20049;-79
2024/01/04 00:31:21;;;;;;;70.65;16.55;;;;;;;2.11;100.00;99457.09;5082644;28;20418;-80
2024/01/04 00:33:46;;;;;;;61.92;17.02;;;;;;;1.82;100.00;99477.06;5076412;28;20043;-79
2024/01/04 00:36:13;;;;;;;47.10;15.77;;;;;;;1.82;100.00;99427.09;5058170;28;20119;-79
2024/01/04 00:38:38;;;;;;;31.08;15.60;;;;;;;1.50;100.00;99484.16;5076308;28;20020;-79
2024/01/04 00:41:04;;;;;;;40.13;16.33;;;;;;;1.62;100.00;99484.59;5057836;28;20568;-79
2024/01/04 00:43:29;;;;;;;42.55;17.17;;;;;;;1.65;100.00;99444.00;5076711;28;20040;-79
2024/01/04 00:45:55;;;;;;;40.33;17.52;;;;;;;1.51;100.00;99454.28;5075230;28;20033;-79
2024/01/04 00:48:20;;;;;;;71.65;18.15;;;;;;;1.56;100.00;99459.81;5057452;28;20033;-78
2024/01/04 00:50:46;;;;;;;64.25;17.80;;;;;;;1.42;100.00;99436.91;5073052;28;20111;-79
2024/01/04 00:53:11;;;;;;;75.28;17.63;;;;;;;1.44;100.00;99453.34;5058714;28;20029;-79
2024/01/04 00:55:37;;;;;;;72.85;18.15;;;;;;;1.86;100.00;99457.31;5069625;28;20111;-79
2024/01/04 00:58:03;;;;;;;44.63;15.80;;;;;;;1.40;100.00;99454.69;5070623;28;20028;-79
2024/01/04 01:00:29;;;;;;;68.35;16.20;;;;;;;1.13;100.00;99433.16;5057306;28;20460;-79
2024/01/04 01:02:55;;;;;;;63.40;16.17;;;;;;;0.84;100.00;99398.84;5051259;28;20025;-78
2024/01/04 01:05:20;;;;;;;84.95;16.77;;;;;;;1.23;100.00;99446.09;5069208;28;20020;-79
2024/01/04 01:07:46;;;;;;;50.35;16.02;;;;;;;1.06;100.00;99379.69;5069060;28;20028;-79
2024/01/04 01:10:11;;;;;;;32.05;15.18;;;;;;;1.04;100.00;99404.50;5068100;28;20028;-79
2024/01/04 01:12:37;;;;;;;56.47;14.68;;;;;;;1.52;100.00;99427.00;5049886;28;20504;-79
2024/01/04 01:15:02;;;;;;;55.40;16.08;;;;;;;1.65;100.00;99465.00;5068599;28;20047;-79
2024/01/04 01:17:28;;;;;;;56.08;15.57;;;;;;;1.42;100.00;99447.44;5050301;28;20032;-79
2024/01/04 01:19:53;;;;;;;50.63;15.18;;;;;;;1.44;100.00;99415.75;5050382;28;20108;-79
2024/01/04 01:22:19;;;;;;;26.98;13.63;;;;;;;1.75;100.00;99450.63;5050245;28;20078;-79
2024/01/04 01:24:44;;;;;;;29.42;14.00;;;;;;;1.31;100.00;99453.91;5068081;28;20103;-79
2024/01/04 01:27:10;;;;;;;44.13;14.07;;;;;;;0.86;100.00;99413.47;5067004;28;20751;-79
2024/01/04 01:29:35;;;;;;;46.92;15.70;;;;;;;1.40;100.00;99454.69;5068073;28;20028;-78
2024/01/04 01:32:01;;;;;;;52.22;14.23;;;;;;;1.31;100.00;99437.31;5049794;28;20703;-79
2024/01/04 01:34:26;;;;;;;148.85;19.55;;;;;;;1.19;100.00;99400.97;5067917;28;20064;-79
2024/01/04 01:36:52;;;;;;;38.58;15.52;;;;;;;1.31;100.00;99406.63;5068277;28;20050;-78
2024/01/04 01:39:18;;;;;;;35.35;14.02;;;;;;;0.92;100.00;99411.94;5066528;28;20029;-77
2024/01/04 01:41:43;;;;;;;40.03;14.38;;;;;;;0.71;100.00;99387.09;5067773;28;20697;-79
2024/01/04 01:44:09;;;;;;;47.92;14.30;;;;;;;0.66;100.00;99407.00;5049956;28;20078;-78
2024/01/04 01:46:34;;;;;;;33.00;13.73;;;;;;;0.69;100.00;99417.16;5068183;28;20029;-78
2024/01/04 01:49:00;;;;;;;50.15;13.60;;;;;;;1.13;100.00;99438.41;5067902;28;20417;-78
2024/01/04 01:51:26;;;;;;;36.25;12.82;;;;;;;0.57;100.00;99429.81;5067317;28;20025;-78
2024/01/04 01:53:51;;;;;;;53.53;14.45;;;;;;;0.83;100.00;99454.97;5067728;28;20148;-78
2024/01/04 01:56:17;;;;;;;121.47;18.23;;;;;;;0.70;100.00;99401.22;5066393;28;20180;-78
2024/01/04 01:58:43;;;;;;;90.18;15.77;;;;;;;0.67;100.00;99434.88;5067677;28;20039;-78
2024/01/04 02:01:08;;;;;;;45.42;14.38;;;;;;;0.91;100.00;99447.06;5067087;28;20024;-78
2024/01/04 02:03:34;;;;;;;34.75;14.60;;;;;;;0.97;100.00;99446.38;5067390;28;20036;-79
2024/01/04 02:05:59;;;;;;;32.88;14.98;;;;;;;1.36;100.00;99446.31;5067824;28;20515;-78
2024/01/04 02:08:25;;;;;;;31.17;14.43;;;;;;;1.36;100.00;99448.13;5067307;28;20039;-78
2024/01/04 02:10:50;;;;;;;27.73;14.57;;;;;;;1.50;100.00;99436.88;5067837;28;20117;-77
2024/01/04 02:13:15;;;;;;;26.98;12.57;;;;;;;1.38;100.00;99412.00;5066934;28;20924;-78
2024/01/04 02:15:41;;;;;;;27.23;12.38;;;;;;;0.77;100.00;99409.22;5065116;28;20035;-79
2024/01/04 02:18:07;;;;;;;28.40;12.98;;;;;;;1.11;100.00;99427.28;5067628;28;20032;-79
2024/01/04 02:20:32;;;;;;;39.55;12.95;;;;;;;1.02;100.00;99435.34;5064374;28;20024;-78
2024/01/04 02:22:58;;;;;;;27.48;13.63;;;;;;;0.87;100.00;99443.16;5070736;28;20032;-78
2024/01/04 02:25:23;;;;;;;31.25;13.27;;;;;;;0.73;100.00;99440.25;5065006;28;20081;-79
2024/01/04 02:27:49;;;;;;;50.20;13.80;;;;;;;0.44;100.00;99408.56;5070359;28;20394;-79
2024/01/04 02:30:14;;;;;;;23.92;13.07;;;;;;;0.70;100.00;99403.06;5071378;28;20036;-78
2024/01/04 02:32:39;;;;;;;43.03;14.90;;;;;;;0.91;100.00;99421.63;5053336;28;21194;-79
2024/01/04 02:35:05;;;;;;;31.90;12.93;;;;;;;1.07;100.00;99449.63;5071372;28;20037;-79
2024/01/04 02:37:31;;;;;;;34.90;14.40;;;;;;;1.09;100.00;99445.00;5053264;28;20028;-80
2024/01/04 02:39:56;;;;;;;37.60;14.45;;;;;;;1.39;100.00;99439.91;5071224;28;20162;-79
2024/01/04 02:42:22;;;;;;;34.47;14.82;;;;;;;1.19;100.00;99458.75;5071073;28;20111;-80
2024/01/04 02:44:47;;;;;;;41.65;14.55;;;;;;;1.08;100.00;99448.59;5058776;28;20102;-79
2024/01/04 02:47:12;;;;;;;46.95;13.57;;;;;;;1.17;100.00;99460.72;5071123;28;20036;-79
2024/01/04 02:49:38;;;;;;;38.50;14.30;;;;;;;1.25;100.00;99464.28;5071249;28;20024;-78
2024/01/04 02:52:04;;;;;;;36.40;14.25;;;;;;;1.05;100.00;99441.09;5070890;28;20133;-78
2024/01/04 02:54:29;;;;;;;30.77;13.75;;;;;;;0.87;100.00;99451.03;5054217;28;20032;-78
2024/01/04 02:56:55;;;;;;;31.35;14.90;;;;;;;0.52;100.00;99426.91;5070841;28;20028;-79
2024/01/04 02:59:20;;;;;;;32.05;15.05;;;;;;;1.05;100.00;99463.91;5070922;28;20039;-78
2024/01/04 03:01:48;;;;;;;32.85;14.70;;;;;;;1.24;100.00;99467.91;5070535;28;20032;-79
2024/01/04 03:04:14;;;;;;;29.73;14.47;;;;;;;1.07;100.00;99425.97;5052510;28;20089;-79
2024/01/04 03:06:39;;;;;;;33.38;15.13;;;;;;;0.74;100.00;99447.16;5069662;28;20255;-79
2024/01/04 03:09:06;;;;;;;27.17;13.45;;;;;;;1.05;100.00;99448.97;5071031;28;20205;-78
2024/01/04 03:11:31;;;;;;;25.85;13.68;;;;;;;1.30;100.00;99468.03;5070752;28;20044;-79
2024/01/04 03:13:56;;;;;;;27.17;13.60;;;;;;;1.30;100.00;99448.81;5070432;28;20035;-79
2024/01/04 03:16:22;;;;;;;27.88;14.88;;;;;;;1.00;100.00;99444.25;5070591;28;20033;-79
2024/01/04 03:18:47;;;;;;;24.27;13.75;;;;;;;0.85;100.00;99422.31;5069423;28;20448;-79
2024/01/04 03:21:13;;;;;;;22.88;13.60;;;;;;;0.97;100.00;99452.44;5069353;28;20024;-78
2024/01/04 03:23:39;;;;;;;21.83;11.95;;;;;;;0.97;100.00;99477.88;5069943;28;20043;-80
2024/01/04 03:26:04;;;;;;;24.77;13.45;;;;;;;0.96;100.00;99471.00;5052489;28;20482;-79
2024/01/04 03:28:30;;;;;;;24.27;13.60;;;;;;;0.65;100.00;99458.66;5070268;28;20021;-80
2024/01/04 03:30:55;;;;;;;28.98;15.23;;;;;;;0.55;100.00;99458.88;5052092;28;20060;-79
2024/01/04 03:33:21;;;;;;;29.95;14.80;;;;;;;0.53;100.00;99470.50;5069313;28;20086;-79
2024/01/04 03:35:46;;;;;;;28.35;15.18;;;;;;;0.57;100.00;99477.88;5059514;28;20041;-79
2024/01/04 03:38:11;;;;;;;27.52;14.75;;;;;;;0.85;100.00;99455.63;5069077;28;20099;-80
2024/01/04 03:40:37;;;;;;;24.67;14.60;;;;;;;0.79;100.00;99452.69;5070182;28;20036;-79
2024/01/04 03:43:04;;;;;;;26.48;14.20;;;;;;;1.13;100.00;99446.31;5055103;28;20036;-79
2024/01/04 03:45:32;;;;;;;26.33;14.00;;;;;;;0.88;100.00;99432.50;5069910;28;20028;-79
2024/01/04 03:47:58;;;;;;;;;;;;;;;0.64;100.00;99443.91;5070445;28;20075;-81
2024/01/04 03:50:23;;;;;;;24.17;13.52;;;;;;;0.91;100.00;99420.81;5069690;28;19939;-79
2024/01/04 03:52:49;;;;;;;24.63;14.15;;;;;;;0.90;100.00;99417.38;5068935;28;20477;-79
2024/01/04 03:55:18;;;;;;;21.55;13.30;;;;;;;0.81;100.00;99426.28;5069604;28;20039;-79
2024/01/04 03:57:44;;;;;;;30.83;18.13;;;;;;;0.71;100.00;99436.97;5070071;28;20037;-80
2024/01/04 04:00:10;;;;;;;25.00;13.93;;;;;;;0.85;100.00;99458.25;5070174;28;20396;-80
2024/01/04 04:02:35;;;;;;;26.13;15.00;;;;;;;0.86;100.00;99439.72;5051906;28;20035;-80
2024/01/04 04:05:01;;;;;;;26.23;15.63;;;;;;;1.02;100.00;99469.50;5069129;28;20111;-79
2024/01/04 04:07:26;;;;;;;25.23;15.60;;;;;;;1.24;100.00;99478.41;5069640;28;20039;-79
2024/01/04 04:09:52;;;;;;;22.50;14.13;;;;;;;0.73;100.00;99460.44;5051765;28;20032;-79
2024/01/04 04:12:18;;;;;;;28.08;14.82;;;;;;;1.11;100.00;99474.53;5069378;28;20078;-79
2024/01/04 04:14:43;;;;;;;29.13;16.60;;;;;;;0.60;100.00;99453.91;5051100;28;20083;-79
2024/01/04 04:17:09;;;;;;;23.10;12.68;;;;;;;0.11;100.00;99430.44;5065057;28;20041;-79
2024/01/04 04:19:34;;;;;;;24.08;13.55;;;;;;;-0.01;100.00;99435.19;5069529;28;20504;-79
2024/01/04 04:21:59;;;;;;;28.42;14.45;;;;;;;0.67;100.00;99467.16;5068876;28;20113;-79
2024/01/04 04:24:25;;;;;;;25.02;13.57;;;;;;;0.27;100.00;99439.28;5050824;28;20025;-80
2024/01/04 04:26:50;;;;;;;22.85;12.88;;;;;;;0.51;100.00;99441.81;5069729;28;20493;-79
2024/01/04 04:29:16;;;;;;;26.60;13.52;;;;;;;1.12;100.00;99481.41;5051456;28;20489;-79
2024/01/04 04:31:41;;;;;;;28.65;16.13;;;;;;;0.85;100.00;99439.88;5069203;28;20116;-79
2024/01/04 04:34:06;;;;;;;31.25;15.57;;;;;;;0.99;100.00;99429.47;5050892;28;20025;-79
2024/01/04 04:36:32;;;;;;;43.80;22.10;;;;;;;1.01;100.00;99450.31;5068505;28;20068;-80
2024/01/04 04:39:02;;;;;;;192.07;85.82;;;;;;;1.14;100.00;99453.16;5068943;28;20370;-80
2024/01/04 04:41:28;;;;;;;612.92;291.27;;;;;;;0.66;100.00;99428.00;5067707;28;20405;-79
2024/01/04 04:43:53;;;;;;;113.10;50.85;;;;;;;0.73;100.00;99429.75;5067779;28;20028;-79
2024/01/04 04:46:19;;;;;;;163.98;70.43;;;;;;;1.06;100.00;99434.84;5068780;28;20502;-79
2024/01/04 04:48:44;;;;;;;47.60;27.15;;;;;;;0.61;100.00;99415.38;5067616;28;20104;-79
2024/01/04 04:51:10;;;;;;;52.42;30.17;;;;;;;0.62;100.00;99417.00;5069172;28;20503;-78
2024/01/04 04:53:36;;;;;;;58.17;34.38;;;;;;;0.76;100.00;99413.66;5059452;28;20067;-79
2024/01/04 04:56:02;;;;;;;48.65;24.73;;;;;;;0.74;100.00;99420.91;5068629;28;20490;-78
2024/01/04 04:58:29;;;;;;;48.67;22.38;;;;;;;0.42;100.00;99407.91;5068781;28;20097;-78
2024/01/04 05:00:55;;;;;;;90.63;20.48;;;;;;;0.37;100.00;99419.72;5069142;28;20033;-80
2024/01/04 05:03:20;;;;;;;48.63;21.15;;;;;;;-0.06;100.00;99364.13;5050849;28;20114;-79
2024/01/04 05:05:46;;;;;;;46.08;17.70;;;;;;;0.27;100.00;99419.09;5050817;28;20115;-78
2024/01/04 05:08:11;;;;;;;58.55;17.58;;;;;;;0.15;100.00;99416.00;5068493;28;20029;-79
2024/01/04 05:10:37;;;;;;;90.63;17.95;;;;;;;-0.10;100.00;99399.53;5050893;28;20028;-79
2024/01/04 05:13:02;;;;;;;66.32;18.50;;;;;;;0.29;100.00;99443.34;5068220;28;20409;-79
2024/01/04 05:15:28;;;;;;;39.05;17.42;;;;;;;0.39;100.00;99407.25;5068191;28;20055;-78
2024/01/04 05:17:53;;;;;;;37.80;15.88;;;;;;;0.46;100.00;99446.75;5050247;28;20040;-78
2024/01/04 05:20:19;;;;;;;30.17;14.07;;;;;;;0.14;100.00;99422.25;5068399;28;20576;-79
2024/01/04 05:22:45;;;;;;;39.15;15.38;;;;;;;0.39;100.00;99412.50;5050459;28;20078;-78
2024/01/04 05:25:12;;;;;;;37.50;15.02;;;;;;;0.11;100.00;99427.00;5067422;28;20041;-79
2024/01/04 05:27:38;;;;;;;32.90;13.73;;;;;;;0.05;100.00;99440.78;5050438;28;20520;-79
2024/01/04 05:30:07;;;;;;;33.38;15.95;;;;;;;-0.09;100.00;99419.50;5050112;28;20017;-79
2024/01/04 05:32:33;;;;;;;29.50;15.32;;;;;;;-0.05;100.00;99449.63;5067582;28;20048;-79
2024/01/04 05:34:58;;;;;;;30.77;14.43;;;;;;;-0.47;100.00;99427.06;5049855;28;20013;-79
2024/01/04 05:37:24;;;;;;;35.28;17.20;;;;;;;-0.52;100.00;99423.28;5068163;28;20093;-79
2024/01/04 05:39:49;;;;;;;31.92;17.60;;;;;;;-0.52;100.00;99424.09;5068161;28;20115;-78
2024/01/04 05:42:14;;;;;;;32.97;18.25;;;;;;;-0.35;100.00;99424.91;5066849;28;20100;-79
2024/01/04 05:44:40;;;;;;;35.35;20.00;;;;;;;0.09;100.00;99453.38;5067616;28;20021;-78
2024/01/04 05:47:06;;;;;;;40.35;20.02;;;;;;;-0.20;100.00;99438.19;5067560;28;20546;-78
2024/01/04 05:49:31;;;;;;;38.05;17.25;;;;;;;-0.15;100.00;99441.13;5067840;28;20400;-78
2024/01/04 05:51:57;;;;;;;37.55;19.08;;;;;;;0.20;100.00;99457.47;5067653;28;20119;-78
2024/01/04 05:54:22;;;;;;;34.70;17.58;;;;;;;0.39;100.00;99470.22;5049342;28;20028;-79
2024/01/04 05:56:48;;;;;;;30.27;15.82;;;;;;;0.10;100.00;99480.41;5065744;28;20036;-78
2024/01/04 05:59:14;;;;;;;37.22;18.42;;;;;;;0.11;100.00;99487.31;5067668;28;20085;-78
2024/01/04 06:01:39;;;;;;;50.78;22.15;;;;;;;0.33;100.00;99460.41;5067049;28;20029;-79
2024/01/04 06:04:05;;;;;;;48.17;20.02;;;;;;;0.11;100.00;99440.94;5067366;28;20056;-79
2024/01/04 06:06:31;;;;;;;53.33;23.63;;;;;;;0.26;100.00;99453.34;5067898;28;20044;-80
2024/01/04 06:08:56;;;;;;;72.47;29.08;;;;;;;0.32;100.00;99478.91;5049611;28;20447;-79
2024/01/04 06:11:22;;;;;;;123.72;45.38;;;;;;;0.51;100.00;99478.56;5049409;28;20587;-79
2024/01/04 06:13:47;;;;;;;56.33;25.17;;;;;;;0.40;100.00;99466.59;5067293;28;20476;-78
2024/01/04 06:16:12;;;;;;;50.05;24.70;;;;;;;0.36;100.00;99428.56;5067784;28;20036;-79
2024/01/04 06:18:38;;;;;;;34.33;18.92;;;;;;;0.71;100.00;99459.78;5060244;28;20047;-78
2024/01/04 06:21:05;;;;;;;40.45;19.80;;;;;;;0.67;100.00;99451.44;5067766;28;20038;-79
2024/01/04 06:23:31;;;;;;;31.58;16.95;;;;;;;0.79;100.00;99465.81;5067136;28;20748;-79
2024/01/04 06:25:56;;;;;;;29.67;16.33;;;;;;;0.57;100.00;99414.06;5066801;28;20115;-79
2024/01/04 06:28:22;;;;;;;26.88;14.68;;;;;;;1.10;100.00;99461.56;5067546;28;20103;-78
2024/01/04 06:30:48;;;;;;;41.05;18.85;;;;;;;1.09;100.00;99447.63;5067600;28;20032;-78
2024/01/04 06:33:14;;;;;;;58.75;24.90;;;;;;;1.01;100.00;99452.94;5067284;28;20021;-78
2024/01/04 06:35:40;;;;;;;41.30;18.83;;;;;;;0.98;100.00;99456.72;5066870;28;20072;-79
2024/01/04 06:38:09;;;;;;;29.85;15.85;;;;;;;1.02;100.00;99444.03;5054982;28;20115;-78
2024/01/04 06:40:35;;;;;;;31.80;19.77;;;;;;;1.35;100.00;99480.66;5067971;28;20094;-79
2024/01/04 06:43:03;;;;;;;35.85;20.48;;;;;;;1.12;100.00;99480.59;5067387;28;20085;-79
2024/01/04 06:45:32;;;;;;;30.20;17.67;;;;;;;1.32;100.00;99496.75;5066332;28;20032;-79
2024/01/04 06:47:57;;;;;;;31.63;18.42;;;;;;;0.99;100.00;99486.41;5049986;28;20036;-77
2024/01/04 06:50:23;;;;;;;32.28;17.55;;;;;;;1.18;100.00;99485.16;5065971;28;20039;-80
2024/01/04 06:52:48;;;;;;;37.10;21.05;;;;;;;1.26;100.00;99455.41;5067398;28;20025;-79
2024/01/04 06:55:14;;;;;;;37.05;20.17;;;;;;;1.17;100.00;99484.34;5067468;28;20759;-79
2024/01/04 06:57:40;;;;;;;40.67;20.95;;;;;;;1.05;100.00;99469.97;5066576;28;20021;-79
2024/01/04 07:00:10;;;;;;;41.50;23.70;;;;;;;0.67;100.00;99427.81;5067377;28;20037;-78
2024/01/04 07:02:36;;;;;;;42.78;22.33;;;;;;;0.65;100.00;99482.25;5065779;28;20021;-78
2024/01/04 07:05:03;;;;;;;47.72;22.80;;;;;;;0.62;100.00;99480.00;5067051;28;20036;-78
2024/01/04 07:07:33;;;;;;;41.60;21.65;;;;;;;0.32;100.00;99458.75;5067972;28;20031;-79
2024/01/04 07:09:58;;;;;;;42.22;22.20;;;;;;;0.25;100.00;99415.84;5071214;28;20040;-78
2024/01/04 07:12:25;;;;;;;40.15;21.60;;;;;;;0.97;100.00;99498.91;5052371;28;20052;-78
2024/01/04 07:14:51;;;;;;;47.47;23.58;;;;;;;1.51;100.00;99496.31;5070625;28;20020;-79
2024/01/04 07:17:16;;;;;;;50.65;27.20;;;;;;;1.81;100.00;99492.00;5052410;28;20036;-78
2024/01/04 07:19:45;;;;;;;63.45;31.85;;;;;;;1.79;100.00;99483.47;5070236;28;20120;-79
2024/01/04 07:22:11;;;;;;;52.75;27.77;;;;;;;1.70;100.00;99463.50;5070337;28;20493;-79
2024/01/04 07:24:37;;;;;;;45.58;25.48;;;;;;;2.33;100.00;99487.78;5070271;28;20060;-78
2024/01/04 07:27:04;;;;;;;42.00;25.42;;;;;;;2.38;100.00;99472.25;5051978;28;20089;-78
2024/01/04 07:29:33;;;;;;;43.65;25.00;;;;;;;2.69;100.00;99473.09;5051984;28;20060;-79
2024/01/04 07:31:58;;;;;;;45.40;26.98;;;;;;;2.52;100.00;99432.97;5052156;28;20109;-79
2024/01/04 07:34:24;;;;;;;38.05;22.25;;;;;;;2.78;100.00;99467.56;5070447;28;20111;-78
2024/01/04 07:36:50;;;;;;;36.25;20.25;;;;;;;3.06;100.00;99474.75;5051635;28;20033;-79
2024/01/04 07:39:15;;;;;;;36.78;22.08;;;;;;;3.36;100.00;99458.91;5058312;28;20029;-78
2024/01/04 07:41:43;;;;;;;35.97;21.77;;;;;;;3.28;100.00;99448.47;5068787;28;20064;-77
2024/01/04 07:44:09;;;;;;;38.10;23.73;;;;;;;3.68;100.00;99491.88;5068551;28;20021;-79
2024/01/04 07:46:34;;;;;;;35.55;22.80;;;;;;;3.74;100.00;99463.91;5069779;28;20025;-75
2024/01/04 07:49:00;;;;;;;36.15;22.27;;;;;;;3.73;100.00;99433.28;5069833;28;20031;-77
2024/01/04 07:51:25;;;;;;;43.25;25.27;;;;;;;3.83;100.00;99439.06;5051720;28;20028;-77
2024/01/04 07:53:50;;;;;;;40.03;24.15;;;;;;;3.85;100.00;99460.78;5051991;28;20027;-77
2024/01/04 07:56:16;;;;;;;36.65;22.30;;;;;;;4.12;100.00;99464.44;5051791;28;20091;-77
2024/01/04 07:58:41;;;;;;;84.80;53.72;;;;;;;4.09;100.00;99456.91;5051309;28;20119;-76
2024/01/04 08:01:07;;;;;;;46.45;28.10;;;;;;;4.32;100.00;99463.78;5051854;28;20481;-78
2024/01/04 08:03:32;;;;;;;71.15;39.60;;;;;;;4.43;100.00;99450.03;5051698;28;20441;-77
2024/01/04 08:05:58;;;;;;;57.63;34.97;;;;;;;4.40;100.00;99456.50;5069570;28;20024;-77
2024/01/04 08:08:26;;;;;;;52.10;36.50;;;;;;;4.05;100.00;99410.00;5069190;28;20040;-77
2024/01/04 08:10:52;;;;;;;57.92;40.70;;;;;;;4.46;100.00;99422.44;5069150;28;20070;-77
2024/01/04 08:13:17;;;;;;;47.17;28.85;;;;;;;4.37;100.00;99419.97;5069614;28;20045;-76
2024/01/04 08:15:42;;;;;;;47.20;29.15;;;;;;;4.72;100.00;99427.84;5069634;28;20111;-78
2024/01/04 08:18:08;;;;;;;46.00;30.23;;;;;;;5.07;100.00;99425.16;5068653;28;20033;-77
2024/01/04 08:20:33;;;;;;;39.05;25.17;;;;;;;5.41;100.00;99447.19;5069389;28;20025;-78
2024/01/04 08:23:00;;;;;;;44.17;30.98;;;;;;;5.70;100.00;99448.66;5068163;28;20094;-78
2024/01/04 08:25:25;;;;;;;41.75;25.55;;;;;;;5.75;100.00;99450.69;5069449;28;20481;-78
2024/01/04 08:27:52;;;;;;;41.95;26.58;;;;;;;5.83;100.00;99397.56;5050830;28;20485;-76
2024/01/04 08:30:18;;;;;;;62.17;41.63;;;;;;;5.99;100.00;99418.38;5068517;28;20043;-77
2024/01/04 08:32:43;;;;;;;47.47;31.92;;;;;;;5.80;100.00;99408.56;5069060;28;20454;-77
2024/01/04 08:35:08;;;;;;;46.58;29.63;;;;;;;5.96;100.00;99402.88;5050324;28;20035;-78
2024/01/04 08:37:34;;;;;;;48.25;30.17;;;;;;;6.08;100.00;99383.75;5050134;28;20028;-78
2024/01/04 08:39:59;;;;;;;49.42;28.73;;;;;;;5.97;100.00;99399.22;5068607;28;20024;-77
2024/01/04 08:42:25;;;;;;;40.80;26.98;;;;;;;5.90;100.00;99371.91;5068464;28;20040;-77
2024/01/04 08:44:50;;;;;;;41.50;26.83;;;;;;;5.83;100.00;99357.88;5068618;28;20127;-77
2024/01/04 08:47:16;;;;;;;35.35;24.85;;;;;;;5.73;100.00;99333.69;5049899;28;20028;-77
2024/01/04 08:49:41;;;;;;;36.90;25.23;;;;;;;5.92;100.00;99345.25;5050440;28;20035;-77
2024/01/04 08:52:06;;;;;;;40.95;27.33;;;;;;;5.90;100.00;99345.44;5068468;28;20059;-77
2024/01/04 08:54:32;;;;;;;40.53;24.85;;;;;;;6.37;100.00;99367.38;5068714;28;20032;-78
2024/01/04 08:56:57;;;;;;;34.17;22.27;;;;;;;6.37;100.00;99346.19;5050537;28;20039;-76
2024/01/04 08:59:23;;;;;;;33.63;21.10;;;;;;;6.78;100.00;99337.06;5068291;28;20115;-78
2024/01/04 09:01:48;;;;;;;45.35;28.92;;;;;;;7.39;100.00;99340.13;5068708;28;20028;-78
2024/01/04 09:04:14;;;;;;;46.55;29.40;;;;;;;8.76;100.00;99347.94;5068232;28;20095;-77
2024/01/04 09:06:39;;;;;;;35.55;24.75;;;;;;;10.50;100.00;99371.81;5068426;28;20054;-78
2024/01/04 09:09:07;;;;;;;35.05;23.90;;;;;;;9.79;100.00;99366.50;5049881;28;20035;-78
2024/01/04 09:11:38;;;;;;;;;;;;;;;10.01;100.00;99364.91;5068639;28;20055;-77
2024/01/04 09:14:07;;;;;;;70.15;38.20;;;;;;;9.40;100.00;99355.47;5050134;28;20061;-77
2024/01/04 09:16:34;;;;;;;43.03;28.48;;;;;;;9.29;100.00;99356.25;5068126;28;20025;-78
2024/01/04 09:19:01;;;;;;;43.38;27.15;;;;;;;8.70;100.00;99329.44;5049479;28;20048;-76
2024/01/04 09:21:27;;;;;;;46.45;34.67;;;;;;;8.85;100.00;99333.31;5068259;28;20025;-78
2024/01/04 09:23:52;;;;;;;54.78;48.78;;;;;;;9.06;100.00;99349.81;5049712;28;20028;-77
2024/01/04 09:26:18;;;;;;;33.85;24.65;;;;;;;8.71;100.00;99328.41;5067843;28;20074;-77
2024/01/04 09:28:44;;;;;;;32.45;22.02;;;;;;;8.81;100.00;99313.53;5067887;28;20028;-78
2024/01/04 09:31:09;;;;;;;37.13;25.52;;;;;;;8.81;100.00;99312.72;5067239;28;20033;-78
2024/01/04 09:33:35;;;;;;;30.85;20.25;;;;;;;9.04;100.00;99318.13;5066618;28;20039;-78
2024/01/04 09:36:00;;;;;;;27.30;18.70;;;;;;;9.06;100.00;99333.84;5068041;28;20486;-78
2024/01/04 09:38:27;;;;;;;27.50;19.05;;;;;;;9.16;100.00;99320.81;5053069;28;20110;-77
2024/01/04 09:41:00;;;;;;;27.50;18.27;;;;;;;9.10;100.00;99315.59;5055216;28;20754;-77
2024/01/04 09:43:30;;;;;;;31.02;21.45;;;;;;;9.16;100.00;99299.53;5067774;28;20417;-77
2024/01/04 09:46:00;;;;;;;33.00;20.65;;;;;;;8.79;100.00;99286.38;5067733;28;20021;-78
2024/01/04 09:48:31;;;;;;;24.88;17.98;;;;;;;8.96;100.00;99299.03;5067476;28;20047;-77
2024/01/04 09:50:56;;;;;;;26.58;17.38;;;;;;;9.15;100.00;99292.56;5067524;28;20055;-78
2024/01/04 09:53:22;;;;;;;25.77;17.65;;;;;;;8.84;100.00;99273.19;5067463;28;20169;-76
2024/01/04 09:55:48;;;;;;;31.15;20.23;;;;;;;8.91;100.00;99266.97;5067671;28;20401;-77
2024/01/04 09:58:13;;;;;;;30.83;20.00;;;;;;;8.92;100.00;99260.63;5067335;28;20108;-78
2024/01/04 10:00:39;;;;;;;36.53;19.65;;;;;;;9.04;100.00;99274.75;5067431;28;20546;-78
2024/01/04 10:03:07;;;;;;;27.98;18.38;;;;;;;9.07;100.00;99253.00;5067552;28;20032;-77
2024/01/04 10:05:34;;;;;;;29.38;18.75;;;;;;;9.22;100.00;99280.00;5067244;28;20508;-78
2024/01/04 10:08:19;;;;;;;85.20;72.70;;;;;;;9.48;100.00;99280.63;5067093;28;20037;-78
2024/01/04 10:10:44;;;;;;;60.50;48.03;;;;;;;9.39;100.00;99248.19;5067449;28;20024;-77
2024/01/04 10:13:11;;;;;;;44.47;32.53;;;;;;;9.62;100.00;99241.25;5067155;28;20101;-77
2024/01/04 10:15:36;;;;;;;79.18;64.65;;;;;;;9.67;100.00;99252.03;5049641;28;20048;-78
2024/01/04 10:18:03;;;;;;;79.55;48.83;;;;;;;9.60;100.00;99200.72;5067463;28;20050;-77
2024/01/04 10:20:29;;;;;;;74.18;42.80;;;;;;;9.89;100.00;99232.75;5048562;28;20017;-77
2024/01/04 10:22:57;;;;;;;61.90;33.63;;;;;;;9.98;100.00;99218.84;5049477;28;20024;-78
2024/01/04 10:25:22;;;;;;;51.65;31.92;;;;;;;10.18;100.00;99254.94;5067102;28;20028;-76
2024/01/04 10:27:58;;;;;;;46.03;30.08;;;;;;;10.09;100.00;99249.16;5067453;28;20050;-77
2024/01/04 10:30:24;;;;;;;45.47;29.63;;;;;;;10.11;100.00;99247.06;5066842;28;20067;-78
2024/01/04 10:32:50;;;;;;;34.95;22.30;;;;;;;10.15;100.00;99247.41;5066990;28;20090;-77
2024/01/04 10:35:24;;;;;;;35.63;26.02;;;;;;;10.29;100.00;99251.41;5067546;28;20029;-78
2024/01/04 10:38:01;;;;;;;35.35;24.73;;;;;;;10.17;100.00;99238.13;5067440;28;20035;-76
2024/01/04 10:40:27;;;;;;;34.38;24.33;;;;;;;10.33;100.00;99239.28;5066821;28;20064;-77
2024/01/04 10:42:53;;;;;;;39.60;27.80;;;;;;;10.44;100.00;99230.44;5069306;28;20137;-78
2024/01/04 10:45:29;;;;;;;31.63;21.67;;;;;;;10.10;100.00;99202.03;5070290;28;20082;-77
2024/01/04 10:47:55;;;;;;;47.65;35.20;;;;;;;10.23;100.00;99205.19;5065908;28;20378;-78
2024/01/04 10:50:24;;;;;;;33.08;24.40;;;;;;;10.64;100.00;99215.84;5071303;28;20500;-77
2024/01/04 10:52:56;;;;;;;26.42;17.60;;;;;;;10.83;100.00;99190.59;5071854;28;20032;-77
2024/01/04 10:55:24;;;;;;;24.95;18.60;;;;;;;11.65;100.00;99213.16;5053653;28;20033;-76
2024/01/04 10:57:53;;;;;;;25.23;16.75;;;;;;;10.98;100.00;99175.88;5072032;28;20115;-77
2024/01/04 11:00:19;;;;;;;33.65;22.27;;;;;;;13.44;100.00;99206.13;5053683;28;20029;-77
2024/01/04 11:02:44;;;;;;;24.67;16.98;;;;;;;13.36;98.67;99217.31;5072345;28;20032;-77
2024/01/04 11:05:10;;;;;;;19.98;14.75;;;;;;;13.31;96.84;99206.56;5072057;28;20020;-77
2024/01/04 11:07:39;;;;;;;20.98;13.35;;;;;;;12.63;100.00;99187.53;5072892;28;20025;-79
2024/01/04 11:10:06;;;;;;;19.27;13.82;;;;;;;11.70;100.00;99153.63;5080996;28;20485;-79
2024/01/04 11:12:34;;;;;;;18.67;13.43;;;;;;;12.04;100.00;99175.72;5081949;28;20075;-78